63IS weather

Corn Alley Airport
El Paso, Illinois, United States

Public forecast

Using degrees Fahrenheit for public forecast. Weather courtesy of forecast.io.

Closest aviation weather report (METAR) to Corn Alley Airport

Closest report is Central Illinois Regional Airport at Bloomington-Normal, 17.8 nm (33.0 km) S. Retrieved 2019/12/10 22:56 UTC (52 minutes ago):

KBMI 102256Z 27009KT 10SM FEW036 M05/M11 A3030 RMK AO2 SLP272 T10501106

Closest aviation forecast (TAF) to Corn Alley Airport

Closest forecast is Central Illinois Regional Airport at Bloomington-Normal, 17.8 nm (33.0 km) S. Retrieved 2019/12/10 18:40 UTC (5 hours ago):

TAF KBMI 101737Z 1018/1118 29011KT P6SM FEW250 FM110000 27007KT P6SM SKC FM111200 25006KT P6SM VCSH BKN040 FM111600 25010KT P6SM SCT050